Time;durP1;ratioP1;P1;durP2;ratioP2;P2;SDS_P1;SDS_P2;PMS_P1;PMS_P2;Temp;Humidity;BMP_temperature;BMP_pressure;BME280_temperature;BME280_humidity;BME280_pressure;Samples;Min_cycle;Max_cycle;Signal;HPM_P1;HPM_P2
2021/06/04 00:01:48;;;;;;;4.40;3.75;;;;;;;;;;5089013;28;20380;-81
2021/06/04 00:04:14;;;;;;;6.65;4.32;;;;;;;;;;5088684;28;20976;-83
2021/06/04 00:06:40;;;;;;;5.30;4.30;;;;;;;;;;5088638;28;20369;-81
2021/06/04 00:09:07;;;;;;;6.40;4.38;;;;;;;;;;5088779;28;20357;-85
2021/06/04 00:11:39;;;;;;;4.78;4.20;;;;;;;;;;5088505;28;20380;-85
2021/06/04 00:14:05;;;;;;;5.33;4.40;;;;;;;;;;5089137;28;20843;-81
2021/06/04 00:16:33;;;;;;;6.47;4.40;;;;;;;;;;5088334;28;20399;-81
2021/06/04 00:19:01;;;;;;;6.88;4.47;;;;;;;;;;5088862;28;20946;-80
2021/06/04 00:21:29;;;;;;;7.13;4.53;;;;;;;;;;5088338;28;20416;-83
2021/06/04 00:23:58;;;;;;;5.73;3.97;;;;;;;;;;5088576;28;20415;-78
2021/06/04 00:26:24;;;;;;;7.43;4.53;;;;;;;;;;5088346;28;20373;-82
2021/06/04 00:28:50;;;;;;;6.07;4.30;;;;;;;;;;5088624;28;20565;-83
2021/06/04 00:31:17;;;;;;;6.75;4.53;;;;;;;;;;5088204;28;20455;-81
2021/06/04 00:33:43;;;;;;;6.60;4.53;;;;;;;;;;5088472;28;20460;-81
2021/06/04 00:36:09;;;;;;;5.60;4.45;;;;;;;;;;5088435;28;21079;-82
2021/06/04 00:38:36;;;;;;;5.88;4.20;;;;;;;;;;5070338;28;20385;-81
2021/06/04 00:41:07;;;;;;;7.45;4.20;;;;;;;;;;5088925;28;20422;-85
2021/06/04 00:43:33;;;;;;;5.15;4.10;;;;;;;;;;5070237;28;20905;-84
2021/06/04 00:46:00;;;;;;;5.28;4.78;;;;;;;;;;5088497;28;20847;-84
2021/06/04 00:48:27;;;;;;;7.32;4.43;;;;;;;;;;5088363;28;20368;-82
2021/06/04 00:51:00;;;;;;;7.05;4.55;;;;;;;;;;5088399;28;20356;-81
2021/06/04 00:53:26;;;;;;;5.03;4.35;;;;;;;;;;5087927;28;20372;-82
2021/06/04 00:55:53;;;;;;;6.88;4.32;;;;;;;;;;5088198;28;20384;-84
2021/06/04 00:58:21;;;;;;;9.27;4.47;;;;;;;;;;5088463;28;20431;-83
2021/06/04 01:00:51;;;;;;;6.57;4.55;;;;;;;;;;5088409;28;20384;-81
2021/06/04 01:03:18;;;;;;;7.07;4.80;;;;;;;;;;5087960;28;20393;-82
2021/06/04 01:05:44;;;;;;;7.83;4.50;;;;;;;;;;5088223;28;20726;-86
2021/06/04 01:08:22;;;;;;;4.55;4.07;;;;;;;;;;5091266;28;20372;-82
2021/06/04 01:10:56;;;;;;;7.57;5.03;;;;;;;;;;5092068;28;20400;-83
2021/06/04 01:13:25;;;;;;;7.00;4.35;;;;;;;;;;5091510;28;20770;-82
2021/06/04 01:16:07;;;;;;;6.20;4.38;;;;;;;;;;5091790;28;20376;-81
2021/06/04 01:18:41;;;;;;;5.75;4.53;;;;;;;;;;5091643;28;20376;-83
2021/06/04 01:21:09;;;;;;;5.78;4.22;;;;;;;;;;5073409;28;20862;-82
2021/06/04 01:23:50;;;;;;;6.33;4.57;;;;;;;;;;5091454;28;20885;-83
2021/06/04 01:26:29;;;;;;;8.25;4.60;;;;;;;;;;5091387;28;20365;-84
2021/06/04 01:29:05;;;;;;;4.78;4.28;;;;;;;;;;5073271;28;20745;-80
2021/06/04 01:31:39;;;;;;;4.72;4.10;;;;;;;;;;5091517;28;20364;-82
2021/06/04 01:34:08;;;;;;;5.57;4.25;;;;;;;;;;5091454;28;20369;-82
2021/06/04 01:36:39;;;;;;;5.43;4.32;;;;;;;;;;5091505;28;20371;-81
2021/06/04 01:39:08;;;;;;;5.60;4.45;;;;;;;;;;5073029;28;20742;-82
2021/06/04 01:41:35;;;;;;;5.68;4.10;;;;;;;;;;5090928;28;20396;-83
2021/06/04 01:44:05;;;;;;;5.40;4.17;;;;;;;;;;5072957;28;20906;-84
2021/06/04 01:46:51;;;;;;;5.60;4.10;;;;;;;;;;5091269;28;20832;-82
2021/06/04 01:49:20;;;;;;;6.30;4.13;;;;;;;;;;5091586;28;20420;-82
2021/06/04 01:51:53;;;;;;;5.72;4.45;;;;;;;;;;5090800;28;20403;-80
2021/06/04 01:54:33;;;;;;;5.03;4.47;;;;;;;;;;5091213;28;20427;-81
2021/06/04 01:57:01;;;;;;;9.75;4.78;;;;;;;;;;5091026;28;20373;-83
2021/06/04 01:59:29;;;;;;;4.88;4.43;;;;;;;;;;5090803;28;20400;-87
2021/06/04 02:01:56;;;;;;;5.03;4.38;;;;;;;;;;5072607;28;20365;-84
2021/06/04 02:04:32;;;;;;;5.75;4.53;;;;;;;;;;5072678;28;20416;-82
2021/06/04 02:06:59;;;;;;;5.95;4.70;;;;;;;;;;5072816;28;20873;-81
2021/06/04 02:09:27;;;;;;;6.40;4.78;;;;;;;;;;5090811;28;20392;-78
2021/06/04 02:11:53;;;;;;;4.82;4.40;;;;;;;;;;5072474;28;20412;-79
2021/06/04 02:14:23;;;;;;;6.30;4.53;;;;;;;;;;5072524;28;21139;-81
2021/06/04 02:17:07;;;;;;;5.28;4.53;;;;;;;;;;5090605;28;20781;-79
2021/06/04 02:19:52;;;;;;;5.37;4.47;;;;;;;;;;5089430;28;20395;-83
2021/06/04 02:22:22;;;;;;;6.55;4.55;;;;;;;;;;5071849;28;20372;-86
2021/06/04 02:24:48;;;;;;;5.38;4.68;;;;;;;;;;5090471;28;20407;-84
2021/06/04 02:27:19;;;;;;;6.13;4.63;;;;;;;;;;5090302;28;20943;-83
2021/06/04 02:30:12;;;;;;;5.93;4.53;;;;;;;;;;5090273;28;20414;-83
2021/06/04 02:32:43;;;;;;;6.72;4.82;;;;;;;;;;5089935;28;20377;-83
2021/06/04 02:35:17;;;;;;;10.25;4.72;;;;;;;;;;5090241;28;20368;-82
2021/06/04 02:37:44;;;;;;;7.47;4.68;;;;;;;;;;5090620;28;20454;-81
2021/06/04 02:40:17;;;;;;;6.22;4.60;;;;;;;;;;5089884;28;20376;-84
2021/06/04 02:42:45;;;;;;;7.33;4.50;;;;;;;;;;5089832;28;20407;-79
2021/06/04 02:45:20;;;;;;;6.80;4.45;;;;;;;;;;5089889;28;20365;-82
2021/06/04 02:47:49;;;;;;;4.68;4.18;;;;;;;;;;5090151;28;20430;-80
2021/06/04 02:50:23;;;;;;;6.20;4.22;;;;;;;;;;5090087;28;20917;-85
2021/06/04 02:52:49;;;;;;;7.53;4.33;;;;;;;;;;5089608;28;20356;-86
2021/06/04 02:55:30;;;;;;;8.73;5.17;;;;;;;;;;5089624;28;20365;-80
2021/06/04 02:57:56;;;;;;;6.50;4.40;;;;;;;;;;5071553;28;20846;-80
2021/06/04 03:00:25;;;;;;;7.95;4.38;;;;;;;;;;5089838;28;20424;-79
2021/06/04 03:02:51;;;;;;;5.30;4.20;;;;;;;;;;5089534;28;20431;-82
2021/06/04 03:05:21;;;;;;;77.30;11.50;;;;;;;;;;5089881;28;20365;-86
2021/06/04 03:07:48;;;;;;;9.55;4.75;;;;;;;;;;5071489;28;20422;-85
2021/06/04 03:10:22;;;;;;;7.60;4.78;;;;;;;;;;5071305;28;20790;-81
2021/06/04 03:12:49;;;;;;;9.95;4.35;;;;;;;;;;5089610;28;20396;-83
2021/06/04 03:15:18;;;;;;;5.93;4.63;;;;;;;;;;5089312;28;20372;-86
2021/06/04 03:17:44;;;;;;;7.78;4.50;;;;;;;;;;5071237;28;20707;-80
2021/06/04 03:20:12;;;;;;;5.78;4.22;;;;;;;;;;5089325;28;20381;-78
2021/06/04 03:22:39;;;;;;;5.93;4.35;;;;;;;;;;5089138;28;20403;-80
2021/06/04 03:25:16;;;;;;;7.43;4.78;;;;;;;;;;5089239;28;20403;-85
2021/06/04 03:27:42;;;;;;;20.30;5.93;;;;;;;;;;5089439;28;20387;-81
2021/06/04 03:30:08;;;;;;;5.95;4.45;;;;;;;;;;5088824;28;20762;-85
2021/06/04 03:32:35;;;;;;;4.95;4.47;;;;;;;;;;5089338;28;20385;-83
2021/06/04 03:35:01;;;;;;;5.47;4.35;;;;;;;;;;5089211;28;20400;-83
2021/06/04 03:37:27;;;;;;;5.82;4.20;;;;;;;;;;5089342;28;20381;-85
2021/06/04 03:39:53;;;;;;;5.90;4.30;;;;;;;;;;5070926;28;20371;-83
2021/06/04 03:42:24;;;;;;;5.53;4.10;;;;;;;;;;5088943;28;20423;-79
2021/06/04 03:44:51;;;;;;;6.70;4.63;;;;;;;;;;5088996;28;20396;-82
2021/06/04 03:47:17;;;;;;;8.25;4.80;;;;;;;;;;5070700;28;20937;-81
2021/06/04 03:49:43;;;;;;;10.43;5.07;;;;;;;;;;5089155;28;20866;-86
2021/06/04 03:52:16;;;;;;;13.27;4.88;;;;;;;;;;5088805;28;20388;-80
2021/06/04 03:54:43;;;;;;;6.95;4.85;;;;;;;;;;5088824;28;20426;-82
2021/06/04 03:57:12;;;;;;;7.20;4.78;;;;;;;;;;5088488;28;20364;-83
2021/06/04 03:59:39;;;;;;;7.60;5.07;;;;;;;;;;5088975;28;20373;-78
2021/06/04 04:02:07;;;;;;;7.57;4.80;;;;;;;;;;5070227;28;20475;-86
2021/06/04 04:04:33;;;;;;;5.55;4.25;;;;;;;;;;5088813;28;20392;-81
2021/06/04 04:06:59;;;;;;;5.55;4.63;;;;;;;;;;5070552;28;20731;-83
2021/06/04 04:09:25;;;;;;;9.60;4.65;;;;;;;;;;5088630;28;20398;-84
2021/06/04 04:11:52;;;;;;;9.93;4.78;;;;;;;;;;5088160;28;20847;-79
2021/06/04 04:14:18;;;;;;;20.60;5.87;;;;;;;;;;5088763;28;20395;-84
2021/06/04 04:16:44;;;;;;;15.27;5.33;;;;;;;;;;5088674;28;20371;-81
2021/06/04 04:19:10;;;;;;;10.50;5.47;;;;;;;;;;5088542;28;20376;-84
2021/06/04 04:21:37;;;;;;;7.60;4.83;;;;;;;;;;5070070;28;20389;-81
2021/06/04 04:24:10;;;;;;;5.03;4.35;;;;;;;;;;5088594;28;20423;-80
2021/06/04 04:26:36;;;;;;;6.85;4.60;;;;;;;;;;5088499;28;20412;-81
2021/06/04 04:29:03;;;;;;;6.60;5.13;;;;;;;;;;5070369;28;20387;-80
2021/06/04 04:31:30;;;;;;;7.30;4.90;;;;;;;;;;5070211;28;20375;-82
2021/06/04 04:33:57;;;;;;;5.75;4.45;;;;;;;;;;5088688;28;20373;-82
2021/06/04 04:36:27;;;;;;;6.20;4.60;;;;;;;;;;5088421;28;20380;-80
2021/06/04 04:38:54;;;;;;;6.32;4.70;;;;;;;;;;5088320;28;20376;-85
2021/06/04 04:41:20;;;;;;;10.43;4.95;;;;;;;;;;5088325;28;20935;-81
2021/06/04 04:43:47;;;;;;;15.02;4.95;;;;;;;;;;5092546;28;20973;-86
2021/06/04 04:46:14;;;;;;;8.18;5.50;;;;;;;;;;5092345;28;20364;-83
2021/06/04 04:48:40;;;;;;;7.18;4.88;;;;;;;;;;5092372;28;21087;-82
2021/06/04 04:51:07;;;;;;;8.52;4.93;;;;;;;;;;5093601;28;20376;-85
2021/06/04 04:53:34;;;;;;;6.38;4.85;;;;;;;;;;5092872;28;20375;-86
2021/06/04 04:56:00;;;;;;;5.28;4.78;;;;;;;;;;5093022;28;20356;-87
2021/06/04 04:58:26;;;;;;;5.80;5.20;;;;;;;;;;5092798;28;20447;-85
2021/06/04 05:00:54;;;;;;;22.23;5.60;;;;;;;;;;5091588;28;20388;-83
2021/06/04 05:03:20;;;;;;;7.57;5.03;;;;;;;;;;5074308;28;20409;-85
2021/06/04 05:05:47;;;;;;;9.25;4.95;;;;;;;;;;5075685;28;20380;-85
2021/06/04 05:08:13;;;;;;;5.60;5.00;;;;;;;;;;5075480;28;20395;-83
2021/06/04 05:10:39;;;;;;;6.28;5.40;;;;;;;;;;5092523;28;20461;-87
2021/06/04 05:13:06;;;;;;;8.57;5.07;;;;;;;;;;5074406;28;20423;-87
2021/06/04 05:15:33;;;;;;;9.82;5.30;;;;;;;;;;5092110;28;20383;-87
2021/06/04 05:18:00;;;;;;;9.90;5.82;;;;;;;;;;5074013;28;20874;-88
2021/06/04 05:20:26;;;;;;;7.22;5.57;;;;;;;;;;5092048;28;20880;-87
2021/06/04 05:22:52;;;;;;;7.32;5.45;;;;;;;;;;5092573;28;21159;-89
2021/06/04 05:25:20;;;;;;;6.50;5.80;;;;;;;;;;5073033;28;20742;-86
2021/06/04 05:27:46;;;;;;;7.13;6.22;;;;;;;;;;5092259;28;20524;-84
2021/06/04 05:30:15;;;;;;;6.50;5.90;;;;;;;;;;5074330;28;20373;-88
2021/06/04 05:32:41;;;;;;;6.57;5.82;;;;;;;;;;5091819;28;20372;-90
2021/06/04 05:35:08;;;;;;;8.35;6.15;;;;;;;;;;5092726;28;20364;-83
2021/06/04 05:37:34;;;;;;;8.70;6.35;;;;;;;;;;5091998;28;20368;-87
2021/06/04 05:40:00;;;;;;;6.53;5.78;;;;;;;;;;5092130;28;20380;-82
2021/06/04 05:42:26;;;;;;;7.93;6.57;;;;;;;;;;5091915;28;20868;-86
2021/06/04 05:44:52;;;;;;;7.10;6.50;;;;;;;;;;5073820;28;20415;-84
2021/06/04 05:47:18;;;;;;;8.88;6.07;;;;;;;;;;5091378;28;20407;-85
2021/06/04 05:49:44;;;;;;;8.90;7.45;;;;;;;;;;5073726;28;20411;-86
2021/06/04 05:52:11;;;;;;;10.88;7.53;;;;;;;;;;5073529;28;20397;-87
2021/06/04 05:54:39;;;;;;;7.85;7.07;;;;;;;;;;5091494;28;20373;-89
2021/06/04 05:57:05;;;;;;;10.23;7.15;;;;;;;;;;5072906;28;20380;-90
2021/06/04 05:59:32;;;;;;;8.63;7.40;;;;;;;;;;5073597;28;20397;-83
2021/06/04 06:01:59;;;;;;;10.27;7.88;;;;;;;;;;5091756;28;20376;-85
2021/06/04 06:04:25;;;;;;;10.10;7.93;;;;;;;;;;5090771;28;20462;-87
2021/06/04 06:06:53;;;;;;;9.88;7.93;;;;;;;;;;5090620;28;20429;-86
2021/06/04 06:09:19;;;;;;;8.55;7.75;;;;;;;;;;5091482;28;20372;-87
2021/06/04 06:11:46;;;;;;;12.73;7.97;;;;;;;;;;5086286;28;20481;-86
2021/06/04 06:14:12;;;;;;;10.88;7.93;;;;;;;;;;5087317;28;20419;-85
2021/06/04 06:16:39;;;;;;;10.30;7.93;;;;;;;;;;5069825;28;20387;-83
2021/06/04 06:19:06;;;;;;;8.40;7.18;;;;;;;;;;5086677;28;20854;-88
2021/06/04 06:21:33;;;;;;;9.80;8.00;;;;;;;;;;5087770;28;20392;-87
2021/06/04 06:23:59;;;;;;;9.18;7.70;;;;;;;;;;5087892;28;20483;-90
2021/06/04 06:26:28;;;;;;;10.23;8.40;;;;;;;;;;5068772;28;20886;-89
2021/06/04 06:28:56;;;;;;;13.63;8.13;;;;;;;;;;5087057;28;20466;-85
2021/06/04 06:31:23;;;;;;;12.38;8.43;;;;;;;;;;5069330;28;20381;-87
2021/06/04 06:33:49;;;;;;;10.23;8.25;;;;;;;;;;5086947;28;20399;-82
2021/06/04 06:36:19;;;;;;;10.68;7.90;;;;;;;;;;5088050;28;20368;-86
2021/06/04 06:38:48;;;;;;;9.63;7.78;;;;;;;;;;5068693;28;20476;-86
2021/06/04 06:41:15;;;;;;;10.25;8.02;;;;;;;;;;5069207;28;20376;-88
2021/06/04 06:43:44;;;;;;;11.95;8.45;;;;;;;;;;5085392;28;20546;-82
2021/06/04 06:46:10;;;;;;;9.75;8.40;;;;;;;;;;5087316;28;20403;-86
2021/06/04 06:48:37;;;;;;;9.18;8.30;;;;;;;;;;5068135;28;20741;-86
2021/06/04 06:51:04;;;;;;;10.13;8.27;;;;;;;;;;5069676;28;20380;-87
2021/06/04 06:53:30;;;;;;;10.95;8.50;;;;;;;;;;5068599;28;20380;-81
2021/06/04 06:55:57;;;;;;;12.13;8.35;;;;;;;;;;5086073;28;20372;-82
2021/06/04 06:58:24;;;;;;;11.18;8.23;;;;;;;;;;5086497;28;20387;-85
2021/06/04 07:00:51;;;;;;;12.67;8.90;;;;;;;;;;5085444;28;20376;-81
2021/06/04 07:03:23;;;;;;;11.20;8.30;;;;;;;;;;5085739;28;20408;-83
2021/06/04 07:05:49;;;;;;;11.35;8.15;;;;;;;;;;5084915;28;20384;-83
2021/06/04 07:08:15;;;;;;;11.93;8.68;;;;;;;;;;5068580;28;20364;-87
2021/06/04 07:10:41;;;;;;;11.02;8.88;;;;;;;;;;5083341;28;20388;-82
2021/06/04 07:13:09;;;;;;;13.60;9.30;;;;;;;;;;5068917;28;20522;-81
2021/06/04 07:15:35;;;;;;;9.07;8.10;;;;;;;;;;5087699;28;20782;-81
2021/06/04 07:18:02;;;;;;;10.75;9.43;;;;;;;;;;5070297;28;20392;-82
2021/06/04 07:20:29;;;;;;;11.32;8.82;;;;;;;;;;5085811;28;20368;-82
2021/06/04 07:22:56;;;;;;;10.50;8.45;;;;;;;;;;5066631;28;20400;-80
2021/06/04 07:25:23;;;;;;;9.82;7.88;;;;;;;;;;5062390;28;20388;-83
2021/06/04 07:27:50;;;;;;;12.18;8.30;;;;;;;;;;5084971;28;20381;-77
2021/06/04 07:30:17;;;;;;;9.38;8.13;;;;;;;;;;5086000;28;20704;-79
2021/06/04 07:32:43;;;;;;;10.98;8.25;;;;;;;;;;5085753;28;20408;-79
2021/06/04 07:35:11;;;;;;;11.00;8.60;;;;;;;;;;5086352;28;20377;-77
2021/06/04 07:37:37;;;;;;;13.47;8.43;;;;;;;;;;5088536;28;20987;-79
2021/06/04 07:40:05;;;;;;;12.68;8.73;;;;;;;;;;5088639;28;20850;-79
2021/06/04 07:42:31;;;;;;;11.35;8.60;;;;;;;;;;5086594;28;20380;-78
2021/06/04 07:44:57;;;;;;;11.02;7.72;;;;;;;;;;5088533;28;20403;-81
2021/06/04 07:47:23;;;;;;;9.27;7.43;;;;;;;;;;5082740;28;20404;-78
2021/06/04 07:49:49;;;;;;;14.68;7.47;;;;;;;;;;5082543;28;20554;-78
2021/06/04 07:52:15;;;;;;;9.87;7.60;;;;;;;;;;5088491;28;20376;-79
2021/06/04 07:54:41;;;;;;;10.77;7.47;;;;;;;;;;5088730;28;20709;-79
2021/06/04 07:57:07;;;;;;;9.73;7.40;;;;;;;;;;5098222;28;20466;-80
2021/06/04 07:59:33;;;;;;;9.57;7.30;;;;;;;;;;5088529;28;20365;-80
2021/06/04 08:01:59;;;;;;;11.20;7.13;;;;;;;;;;5099911;28;20388;-82
2021/06/04 08:04:25;;;;;;;12.15;7.78;;;;;;;;;;5088505;28;20403;-81
2021/06/04 08:06:51;;;;;;;9.43;7.38;;;;;;;;;;5070266;28;20471;-82
2021/06/04 08:09:18;;;;;;;10.43;6.97;;;;;;;;;;5069775;28;20393;-81
2021/06/04 08:11:47;;;;;;;32.45;8.30;;;;;;;;;;5088089;28;20364;-78
2021/06/04 08:14:16;;;;;;;7.55;6.50;;;;;;;;;;5069874;28;20427;-77
2021/06/04 08:16:44;;;;;;;9.80;6.60;;;;;;;;;;5089038;28;20934;-79
2021/06/04 08:19:11;;;;;;;8.70;6.95;;;;;;;;;;5092903;28;20360;-79
2021/06/04 08:21:42;;;;;;;9.02;6.93;;;;;;;;;;5092096;28;20446;-80
2021/06/04 08:24:09;;;;;;;9.93;6.78;;;;;;;;;;5092632;28;20801;-81
2021/06/04 08:26:35;;;;;;;9.10;6.60;;;;;;;;;;5074236;28;20745;-80
2021/06/04 08:29:03;;;;;;;19.67;6.85;;;;;;;;;;5092617;28;20871;-80
2021/06/04 08:31:29;;;;;;;10.53;6.80;;;;;;;;;;5092157;28;20360;-79
2021/06/04 08:33:55;;;;;;;10.48;6.55;;;;;;;;;;5092424;28;20767;-78
2021/06/04 08:36:23;;;;;;;41.35;8.48;;;;;;;;;;5092364;28;20364;-79
2021/06/04 08:38:49;;;;;;;12.40;6.75;;;;;;;;;;5092197;28;20376;-79
2021/06/04 08:41:21;;;;;;;11.03;6.90;;;;;;;;;;5092513;28;20372;-80
2021/06/04 08:43:53;;;;;;;7.43;6.13;;;;;;;;;;5091907;28;20894;-83
2021/06/04 08:46:22;;;;;;;11.05;7.20;;;;;;;;;;5092359;28;20380;-82
2021/06/04 08:48:51;;;;;;;12.35;6.47;;;;;;;;;;5073351;28;20394;-81
2021/06/04 08:51:28;;;;;;;7.90;6.00;;;;;;;;;;5089151;28;20443;-80
2021/06/04 08:54:00;;;;;;;13.07;6.45;;;;;;;;;;5074125;28;20475;-78
2021/06/04 08:56:29;;;;;;;14.70;9.73;;;;;;;;;;5094763;28;20535;-78
2021/06/04 08:59:15;;;;;;;20.00;7.70;;;;;;;;;;5073758;28;20850;-82
2021/06/04 09:01:41;;;;;;;11.00;6.30;;;;;;;;;;5091426;28;20403;-79
2021/06/04 09:04:18;;;;;;;11.68;6.38;;;;;;;;;;5091794;28;20400;-78
2021/06/04 09:07:03;;;;;;;7.20;5.63;;;;;;;;;;5091670;28;20435;-82
2021/06/04 09:09:32;;;;;;;9.52;5.45;;;;;;;;;;5091700;28;20838;-80
2021/06/04 09:11:59;;;;;;;9.57;5.70;;;;;;;;;;5091501;28;20411;-79
2021/06/04 09:14:25;;;;;;;7.35;5.15;;;;;;;;;;5091778;28;20365;-78
2021/06/04 09:16:51;;;;;;;11.80;7.35;;;;;;;;;;5091143;28;20862;-77
2021/06/04 09:19:23;;;;;;;16.93;7.37;;;;;;;;;;5053323;28;20443;-79
2021/06/04 09:21:51;;;;;;;10.70;7.15;;;;;;;;;;5072304;28;20477;-81
2021/06/04 09:24:25;;;;;;;7.97;6.28;;;;;;;;;;5065982;28;20404;-79
2021/06/04 09:26:51;;;;;;;13.53;7.30;;;;;;;;;;5072503;28;21015;-82
2021/06/04 09:29:22;;;;;;;10.57;6.88;;;;;;;;;;5089200;28;20387;-80
2021/06/04 09:31:51;;;;;;;9.67;6.83;;;;;;;;;;5089947;28;20369;-79
2021/06/04 09:34:17;;;;;;;9.17;5.90;;;;;;;;;;5091183;28;20776;-79
2021/06/04 09:36:52;;;;;;;13.00;6.38;;;;;;;;;;5090594;28;20383;-76
2021/06/04 09:39:33;;;;;;;8.73;6.18;;;;;;;;;;5091427;28;20368;-79
2021/06/04 09:42:11;;;;;;;14.70;7.22;;;;;;;;;;5090955;28;20408;-83
2021/06/04 09:44:47;;;;;;;11.43;7.15;;;;;;;;;;5090394;28;20404;-77
2021/06/04 09:47:24;;;;;;;12.13;7.28;;;;;;;;;;5090501;28;20761;-81
2021/06/04 09:49:51;;;;;;;11.30;6.78;;;;;;;;;;5091449;28;20384;-75
2021/06/04 09:52:29;;;;;;;12.18;6.32;;;;;;;;;;5090527;28;20386;-80
2021/06/04 09:55:15;;;;;;;9.57;6.37;;;;;;;;;;5090356;28;20405;-78
2021/06/04 09:58:02;;;;;;;14.52;7.07;;;;;;;;;;5073573;28;20437;-80
2021/06/04 10:00:33;;;;;;;10.82;6.38;;;;;;;;;;5071667;28;20429;-82
2021/06/04 10:03:05;;;;;;;11.23;6.35;;;;;;;;;;5089322;28;20373;-82
2021/06/04 10:05:32;;;;;;;9.95;6.47;;;;;;;;;;5089754;28;20486;-76
2021/06/04 10:07:59;;;;;;;13.13;6.75;;;;;;;;;;5090596;28;20384;-79
2021/06/04 10:10:28;;;;;;;10.52;6.45;;;;;;;;;;5090499;28;20376;-80
2021/06/04 10:13:04;;;;;;;8.50;6.60;;;;;;;;;;5090971;28;20373;-79
2021/06/04 10:15:31;;;;;;;7.60;6.13;;;;;;;;;;5089959;28;20372;-78
2021/06/04 10:20:26;;;;;;;9.67;7.17;;;;;;;;;;5089413;28;20408;-76
2021/06/04 10:23:21;;;;;;;11.60;6.78;;;;;;;;;;5090651;28;20403;-79
2021/06/04 10:25:49;;;;;;;10.52;6.72;;;;;;;;;;5068560;28;20397;-79
2021/06/04 10:28:27;;;;;;;10.85;6.28;;;;;;;;;;5072228;28;20392;-78
2021/06/04 10:30:53;;;;;;;11.83;6.73;;;;;;;;;;5089612;28;20392;-80
2021/06/04 10:33:31;;;;;;;8.90;6.53;;;;;;;;;;5090189;28;20380;-79
2021/06/04 10:36:01;;;;;;;11.32;6.70;;;;;;;;;;5089808;28;20434;-80
2021/06/04 10:38:50;;;;;;;9.40;6.15;;;;;;;;;;5090242;28;20369;-78
2021/06/04 10:41:20;;;;;;;10.20;6.30;;;;;;;;;;5055968;28;21009;-78
2021/06/04 10:43:52;;;;;;;8.25;6.22;;;;;;;;;;5090142;28;20408;-77
2021/06/04 10:46:21;;;;;;;11.25;6.95;;;;;;;;;;5089799;28;20423;-76
2021/06/04 10:48:47;;;;;;;23.50;7.70;;;;;;;;;;5088789;28;20396;-79
2021/06/04 10:51:31;;;;;;;13.30;6.65;;;;;;;;;;5071271;28;20915;-80
2021/06/04 10:54:06;;;;;;;17.02;7.20;;;;;;;;;;5071191;28;20754;-79
2021/06/04 10:56:34;;;;;;;9.67;6.47;;;;;;;;;;5070947;28;20460;-79
2021/06/04 10:59:10;;;;;;;8.45;6.07;;;;;;;;;;5090190;28;20368;-79
2021/06/04 11:01:39;;;;;;;10.52;6.45;;;;;;;;;;5089890;28;20372;-78
2021/06/04 11:04:14;;;;;;;8.77;5.72;;;;;;;;;;5089715;28;20393;-80
2021/06/04 11:06:49;;;;;;;18.10;6.40;;;;;;;;;;5089682;28;20376;-79
2021/06/04 11:09:18;;;;;;;7.10;5.50;;;;;;;;;;5089780;28;20372;-79
2021/06/04 11:11:48;;;;;;;16.13;5.72;;;;;;;;;;5089579;28;20877;-81
2021/06/04 11:14:41;;;;;;;11.20;5.38;;;;;;;;;;5071377;28;20750;-77
2021/06/04 11:17:06;;;;;;;8.55;5.43;;;;;;;;;;5050122;28;20392;-76
2021/06/04 11:19:38;;;;;;;11.13;6.22;;;;;;;;;;5088562;28;20381;-77
2021/06/04 11:22:12;;;;;;;133.63;17.75;;;;;;;;;;5086111;28;20380;-79
2021/06/04 11:24:41;;;;;;;12.40;5.13;;;;;;;;;;5088707;28;20510;-78
2021/06/04 11:27:07;;;;;;;7.93;5.32;;;;;;;;;;5085220;28;20817;-81
2021/06/04 11:29:42;;;;;;;8.77;5.45;;;;;;;;;;5088560;28;20461;-79
2021/06/04 11:32:17;;;;;;;7.85;5.90;;;;;;;;;;5088800;28;20418;-77
2021/06/04 11:34:45;;;;;;;8.23;4.97;;;;;;;;;;5086806;28;20459;-80
2021/06/04 11:37:17;;;;;;;11.63;5.88;;;;;;;;;;5088418;28;20404;-78
2021/06/04 11:39:46;;;;;;;18.45;5.50;;;;;;;;;;5088544;28;20383;-80
2021/06/04 11:42:14;;;;;;;10.98;5.20;;;;;;;;;;5088572;28;20854;-80
2021/06/04 11:44:43;;;;;;;7.60;5.35;;;;;;;;;;5088175;28;20407;-79
2021/06/04 11:47:22;;;;;;;13.23;5.72;;;;;;;;;;5087690;28;20372;-78
2021/06/04 11:49:54;;;;;;;8.40;4.93;;;;;;;;;;5087212;28;20369;-78
2021/06/04 11:52:35;;;;;;;7.53;5.20;;;;;;;;;;5087832;28;20455;-80
2021/06/04 11:55:13;;;;;;;7.55;4.85;;;;;;;;;;5069856;28;20426;-80
2021/06/04 11:57:46;;;;;;;8.43;5.47;;;;;;;;;;5088555;28;20943;-84
2021/06/04 12:00:24;;;;;;;12.40;5.00;;;;;;;;;;5088351;28;20909;-82
2021/06/04 12:02:52;;;;;;;11.80;5.38;;;;;;;;;;5087400;28;20384;-83
2021/06/04 12:05:18;;;;;;;14.80;5.70;;;;;;;;;;5066653;28;20411;-81
2021/06/04 12:07:45;;;;;;;8.63;5.20;;;;;;;;;;5069103;28;20430;-80
2021/06/04 12:10:13;;;;;;;11.20;5.40;;;;;;;;;;5087647;28;20380;-82
2021/06/04 12:12:52;;;;;;;11.20;5.40;;;;;;;;;;5087275;28;20455;-84
2021/06/04 12:15:21;;;;;;;12.05;5.70;;;;;;;;;;5081585;28;20904;-81
2021/06/04 12:17:47;;;;;;;8.07;4.93;;;;;;;;;;5084623;28;20379;-80
2021/06/04 12:20:29;;;;;;;7.87;4.90;;;;;;;;;;5082854;28;21741;-79
2021/06/04 12:22:59;;;;;;;7.22;5.30;;;;;;;;;;5082341;28;20387;-80
2021/06/04 12:25:43;;;;;;;14.95;6.13;;;;;;;;;;5063777;28;20439;-77
2021/06/04 12:28:11;;;;;;;9.38;5.88;;;;;;;;;;5064851;28;20918;-81
2021/06/04 12:30:50;;;;;;;11.37;5.03;;;;;;;;;;5081700;28;20452;-81
2021/06/04 12:33:33;;;;;;;10.15;5.15;;;;;;;;;;5081599;28;20463;-77
2021/06/04 12:35:59;;;;;;;9.35;5.50;;;;;;;;;;5063635;28;20388;-81
2021/06/04 12:38:34;;;;;;;8.63;4.82;;;;;;;;;;5065085;28;20909;-79
2021/06/04 12:41:03;;;;;;;5.97;4.43;;;;;;;;;;5086451;28;20379;-81
2021/06/04 12:43:37;;;;;;;24.38;5.75;;;;;;;;;;5082731;28;20862;-78
2021/06/04 12:46:07;;;;;;;53.00;8.10;;;;;;;;;;5064846;28;20396;-80
2021/06/04 12:48:37;;;;;;;5.93;4.68;;;;;;;;;;5083885;28;20407;-81
2021/06/04 12:51:09;;;;;;;14.30;5.72;;;;;;;;;;5064970;28;20412;-81
2021/06/04 12:53:37;;;;;;;6.35;5.07;;;;;;;;;;5084608;28;20384;-80
2021/06/04 12:56:32;;;;;;;16.48;5.85;;;;;;;;;;5084313;28;20407;-77
2021/06/04 12:59:13;;;;;;;8.90;5.13;;;;;;;;;;5063154;28;20529;-81
2021/06/04 13:01:55;;;;;;;12.37;5.40;;;;;;;;;;5057773;28;20857;-80
2021/06/04 13:04:26;;;;;;;9.05;4.75;;;;;;;;;;5083893;28;20410;-79
2021/06/04 13:06:56;;;;;;;8.15;4.90;;;;;;;;;;5079685;28;20369;-79
2021/06/04 13:09:33;;;;;;;7.35;5.07;;;;;;;;;;5079405;28;20381;-79
2021/06/04 13:12:01;;;;;;;7.57;4.95;;;;;;;;;;5069740;28;20376;-76
2021/06/04 13:14:41;;;;;;;5.95;4.60;;;;;;;;;;5069777;28;20387;-77
2021/06/04 13:17:09;;;;;;;8.35;4.70;;;;;;;;;;5069406;28;21158;-79
2021/06/04 13:19:36;;;;;;;34.67;7.37;;;;;;;;;;5077576;28;20848;-83
2021/06/04 13:22:16;;;;;;;7.15;4.65;;;;;;;;;;5083608;28;20957;-83
2021/06/04 13:24:45;;;;;;;9.98;4.97;;;;;;;;;;5079549;28;20392;-82
2021/06/04 13:27:24;;;;;;;12.88;5.57;;;;;;;;;;5080011;28;20376;-84
2021/06/04 13:29:54;;;;;;;21.20;7.03;;;;;;;;;;5053902;28;20413;-83
2021/06/04 13:32:42;;;;;;;8.00;5.18;;;;;;;;;;5087888;28;20360;-82
2021/06/04 13:35:08;;;;;;;8.95;5.10;;;;;;;;;;5069220;28;20376;-82
2021/06/04 13:37:41;;;;;;;10.13;4.70;;;;;;;;;;5069480;28;20439;-84
2021/06/04 13:40:11;;;;;;;10.32;4.78;;;;;;;;;;5064349;28;20404;-87
2021/06/04 13:42:41;;;;;;;6.40;4.50;;;;;;;;;;5087755;28;20463;-84
2021/06/04 13:45:08;;;;;;;7.78;5.30;;;;;;;;;;5089190;28;20517;-85
2021/06/04 13:47:39;;;;;;;5.97;4.83;;;;;;;;;;5089636;28;20387;-83
2021/06/04 13:51:16;;;;;;;8.73;4.60;;;;;;;;;;5087500;28;20375;-83
2021/06/04 13:53:41;;;;;;;7.93;4.50;;;;;;;;;;5039907;28;20382;-82
2021/06/04 13:56:27;;;;;;;7.45;5.18;;;;;;;;;;5024893;28;20403;-85
2021/06/04 13:59:11;;;;;;;5.18;4.68;;;;;;;;;;5075729;28;20894;-84
2021/06/04 14:01:47;;;;;;;21.15;6.13;;;;;;;;;;5070790;28;20389;-82
2021/06/04 14:04:39;;;;;;;7.15;4.80;;;;;;;;;;5073064;28;20945;-83
2021/06/04 14:07:07;;;;;;;6.28;5.00;;;;;;;;;;5068548;28;20383;-86
2021/06/04 14:09:36;;;;;;;7.65;5.05;;;;;;;;;;5092721;28;20459;-84
2021/06/04 14:12:22;;;;;;;9.48;5.38;;;;;;;;;;5095475;28;20384;-90
2021/06/04 14:14:52;;;;;;;8.98;4.93;;;;;;;;;;5077477;28;20434;-83
2021/06/04 14:17:30;;;;;;;7.70;5.05;;;;;;;;;;5097763;28;20385;-83
2021/06/04 14:20:00;;;;;;;8.63;5.72;;;;;;;;;;5095814;28;20372;-85
2021/06/04 14:22:45;;;;;;;11.40;5.53;;;;;;;;;;5079054;28;20388;-89
2021/06/04 14:25:14;;;;;;;10.10;5.43;;;;;;;;;;5090085;28;20404;-84
2021/06/04 14:27:43;;;;;;;7.88;4.97;;;;;;;;;;5088252;28;20364;-82
2021/06/04 14:30:24;;;;;;;9.60;5.40;;;;;;;;;;5072770;28;20381;-87
2021/06/04 14:33:00;;;;;;;7.97;5.63;;;;;;;;;;5089668;28;20382;-84
2021/06/04 14:35:28;;;;;;;11.70;5.57;;;;;;;;;;5071133;28;20380;-85
2021/06/04 14:37:58;;;;;;;5.80;5.30;;;;;;;;;;5089906;28;20439;-87
2021/06/04 14:40:26;;;;;;;9.37;5.27;;;;;;;;;;5086363;28;20380;-86
2021/06/04 14:42:53;;;;;;;7.15;5.35;;;;;;;;;;5070093;28;20870;-85
2021/06/04 14:45:20;;;;;;;7.13;5.45;;;;;;;;;;5089690;28;20502;-84
2021/06/04 14:47:46;;;;;;;6.90;5.68;;;;;;;;;;5064862;28;20367;-85
2021/06/04 14:50:20;;;;;;;7.30;5.47;;;;;;;;;;5071956;28;20395;-83
2021/06/04 14:52:46;;;;;;;36.25;7.47;;;;;;;;;;5083319;28;20854;-88
2021/06/04 14:55:14;;;;;;;8.57;5.20;;;;;;;;;;5087926;28;20494;-87
2021/06/04 14:57:41;;;;;;;9.65;5.40;;;;;;;;;;5068145;28;20438;-84
2021/06/04 15:00:08;;;;;;;8.00;5.35;;;;;;;;;;5068658;28;20385;-92